Flight Track Log - Related Links

Times and Time Zones

All times are in EDT time to prevent confusion due to time zone crossing. See the UCA3597 flight status page for this flight to view local times or setup timezone preferences in your user account.

Time Position Orientation Groundspeed Altitude Reporting Facility
EDT Latitude Longitude Course Direction KTS MPH feet Rate Location/Type
Wed 07:16:39 PM 42.1547 -75.9794 212° Southwest 113 130 4,400  Level New York Center
Wed 07:17:39 PM 42.1264 -76.0081 217° Southwest 119 137 5,400 1,200 Climbing New York Center
Wed 07:18:39 PM 42.0936 -76.0417 217° Southwest 139 160 6,800 1,400 Climbing New York Center
Wed 07:19:00 PM 42.0622 -76.2045 217° Southwest  Level FlightAware Approximate
Wed 07:19:39 PM 42.0544 -76.0806 216° Southwest 158 182 8,200  Level New York Center
Wed 07:20:00 PM 42.0099 -76.2363 212° Southwest  Level FlightAware Approximate
Wed 07:20:39 PM 42.0153 -76.1219 218° Southwest 176 203 9,600  Level New York Center
Wed 07:21:39 PM 41.9806 -76.1525 213° Southwest 181 208 11,000 1,300 Climbing New York Center
Wed 07:22:39 PM 41.9433 -76.1914 218° Southwest 181 208 12,200 1,150 Climbing New York Center
Wed 07:23:39 PM 41.8997 -76.2353 217° Southwest 186 214 13,300 1,100 Climbing New York Center
Wed 07:24:39 PM 41.8603 -76.2739 216° Southwest 186 214 14,400 1,000 Climbing New York Center
Wed 07:25:39 PM 41.8214 -76.3094 214° Southwest 186 214 15,300 800 Climbing New York Center
Wed 07:26:39 PM 41.7797 -76.3506 216° Southwest 186 214 16,000 350 Climbing New York Center
Wed 07:27:39 PM 41.7275 -76.4017 216° Southwest 204 235 16,000  Level New York Center
Wed 07:28:39 PM 41.6769 -76.4531 217° Southwest 216 249 16,000  Level New York Center
Wed 07:29:39 PM 41.6247 -76.5042 216° Southwest 228 262 16,000  Level New York Center
Wed 07:30:39 PM 41.5767 -76.5472 214° Southwest 228 262 16,000  Level New York Center
Wed 07:31:39 PM 41.5244 -76.5953 215° Southwest 228 262 16,000  Level New York Center
Wed 07:32:39 PM 41.4675 -76.6514 216° Southwest 228 262 16,000  Level New York Center
Wed 07:33:39 PM 41.4214 -76.6972 217° Southwest 228 262 16,000  Level New York Center
Wed 07:34:39 PM 41.3686 -76.7506 217° Southwest 233 268 16,000  Level New York Center
Wed 07:35:39 PM 41.3128 -76.7842 204° Southwest 233 268 16,000  Level New York Center
Wed 07:36:39 PM 41.2497 -76.7953 188° South 228 262 16,000  Level New York Center
Wed 07:37:39 PM 41.1886 -76.8092 190° South 228 262 16,000  Level New York Center
Wed 07:38:40 PM 41.1236 -76.8197 187° South 233 268 16,000  Level New York Center
Wed 07:39:39 PM 41.0606 -76.8306 187° South 233 268 16,000  Level New York Center
Wed 07:40:39 PM 40.9972 -76.8469 191° South 233 268 16,000  Level New York Center
Wed 07:41:39 PM 40.9342 -76.8578 187° South 238 274 16,000  Level New York Center
Wed 07:42:39 PM 40.8625 -76.8708 188° South 238 274 16,000  Level New York Center
Wed 07:43:39 PM 40.8056 -76.8822 189° South 238 274 16,000  Level New York Center
Wed 07:44:39 PM 40.7378 -76.9033 193° South 238 274 16,000  Level New York Center
Wed 07:45:39 PM 40.6828 -76.9206 193° South 238 274 16,000  Level New York Center
Wed 07:46:39 PM 40.6131 -76.9417 193° South 238 274 16,000  Level New York Center
Wed 07:47:39 PM 40.5578 -76.9583 193° South 233 268 16,000  Level New York Center
Wed 07:48:39 PM 40.4881 -76.9794 193° South 233 268 16,000 -150 Level New York Center
Wed 07:49:39 PM 40.4347 -76.9992 196° South 227 261 15,700 -700 Descending New York Center
Wed 07:50:39 PM 40.3714 -77.0181 193° South 221 254 14,600 -1,000 Descending New York Center
Wed 07:51:39 PM 40.3206 -77.0325 192° South 221 254 13,700 -1,015 Descending New York Center
Wed 07:55:05 PM 40.0833 -77.1000 196° South 237 273 10,100 -1,038 Descending Potomac TRACON
Wed 07:56:05 PM 40.0333 -77.1167 194° South 232 267 9,100 -274 Descending Potomac TRACON
Wed 07:59:06 PM 39.8667 -77.1833 189° South 209 241 9,000 -25 Descending Potomac TRACON
Wed 08:00:00 PM 39.8338 -77.1620 196° South  Level FlightAware Approximate
Wed 08:00:06 PM 39.8167 -77.2167 207° Southwest 211 243 9,000  Level Potomac TRACON
Wed 08:03:00 PM 39.6500 -77.3167 180° South 216 249 7,600 -333 Descending Potomac TRACON
Wed 08:06:06 PM 39.5000 -77.4167 207° Southwest 205 236 7,000 -146 Descending Potomac TRACON
Wed 08:07:06 PM 39.4500 -77.4500 207° Southwest 206 237 7,000 -650 Level Potomac TRACON
Wed 08:08:06 PM 39.4000 -77.4500 180° South 209 241 5,700 -1,000 Descending Potomac TRACON
Wed 08:09:06 PM 39.3333 -77.4500 180° South 211 243 5,000 -350 Descending Potomac TRACON
Wed 08:10:06 PM 39.2667 -77.4500 180° South 213 245 5,000 -575 Level Potomac TRACON
Wed 08:13:06 PM 39.1000 -77.4500 180° South 211 243 2,700 -850 Descending Potomac TRACON
Wed 08:14:06 PM 39.0333 -77.4667 191° South 197 227 1,600 -900 Descending Potomac TRACON
Wed 08:15:06 PM 39.0000 -77.4667 180° South 130 150 900 -700 Descending Potomac TRACON

Login

Don't have an account? Register now (free) for customized features, flight alerts, and more!